Time;durP1;ratioP1;P1;durP2;ratioP2;P2;SDS_P1;SDS_P2;PMS_P1;PMS_P2;Temp;Humidity;BMP_temperature;BMP_pressure;BME280_temperature;BME280_humidity;BME280_pressure;Samples;Min_cycle;Max_cycle;Signal;HPM_P1;HPM_P2
2023/08/05 00:01:23;;;;;;;4.57;1.45;;;14.90;99.90;;;;;;5006170;28;20157;-34
2023/08/05 00:03:49;;;;;;;3.60;1.35;;;14.90;99.90;;;;;;5004757;28;20047;-34
2023/08/05 00:06:15;;;;;;;3.95;1.50;;;14.90;99.90;;;;;;5005660;28;20058;-34
2023/08/05 00:08:40;;;;;;;2.38;0.95;;;14.80;99.90;;;;;;5012859;28;20056;-34
2023/08/05 00:11:06;;;;;;;3.33;0.95;;;14.80;99.90;;;;;;5007187;28;20060;-34
2023/08/05 00:13:34;;;;;;;2.97;1.10;;;14.70;99.90;;;;;;5002640;28;20422;-34
2023/08/05 00:16:05;;;;;;;4.70;1.20;;;14.70;99.90;;;;;;5003573;28;20058;-34
2023/08/05 00:18:30;;;;;;;3.60;1.15;;;14.70;99.90;;;;;;5002976;28;20104;-34
2023/08/05 00:20:56;;;;;;;3.55;1.55;;;14.60;99.90;;;;;;5004238;28;20046;-33
2023/08/05 00:23:22;;;;;;;3.15;0.80;;;14.60;99.90;;;;;;4999274;28;20101;-34
2023/08/05 00:25:47;;;;;;;2.17;0.93;;;14.50;99.90;;;;;;5006493;28;20046;-34
2023/08/05 00:28:13;;;;;;;2.45;0.85;;;14.50;99.90;;;;;;5001444;28;20439;-34
2023/08/05 00:30:39;;;;;;;2.28;1.02;;;14.50;99.90;;;;;;5005321;28;20049;-34
2023/08/05 00:33:04;;;;;;;2.70;0.90;;;14.40;99.90;;;;;;5003195;28;20110;-34
2023/08/05 00:35:30;;;;;;;1.55;0.73;;;14.40;99.90;;;;;;5009972;28;20046;-34
2023/08/05 00:37:55;;;;;;;3.10;1.00;;;14.40;99.90;;;;;;5012690;28;20034;-34
2023/08/05 00:40:21;;;;;;;3.00;0.80;;;14.40;99.90;;;;;;5006503;28;20062;-34
2023/08/05 00:42:47;;;;;;;4.15;0.80;;;14.40;99.90;;;;;;5013316;28;20073;-34
2023/08/05 00:45:12;;;;;;;4.97;1.25;;;14.40;99.90;;;;;;5018831;28;20058;-34
2023/08/05 00:47:38;;;;;;;2.72;1.02;;;14.30;99.90;;;;;;5016389;28;20057;-34
2023/08/05 00:50:05;;;;;;;3.20;1.38;;;14.30;99.90;;;;;;5016257;28;20070;-34
2023/08/05 00:52:31;;;;;;;2.78;1.10;;;14.20;99.90;;;;;;5001488;28;20115;-34
2023/08/05 00:54:57;;;;;;;3.05;1.20;;;14.20;99.90;;;;;;5008499;28;20451;-34
2023/08/05 00:57:23;;;;;;;3.05;1.40;;;14.20;99.90;;;;;;5014531;28;20076;-34
2023/08/05 00:59:48;;;;;;;3.20;1.50;;;14.20;99.90;;;;;;5014714;28;20057;-33
2023/08/05 01:02:14;;;;;;;4.85;1.88;;;14.20;99.90;;;;;;5008870;28;20503;-34
2023/08/05 01:04:40;;;;;;;3.25;1.40;;;14.20;99.90;;;;;;5009688;28;20482;-34
2023/08/05 01:07:06;;;;;;;5.15;1.73;;;14.20;99.90;;;;;;5006942;28;20073;-34
2023/08/05 01:09:31;;;;;;;3.70;1.60;;;14.30;99.90;;;;;;5007246;28;20084;-34
2023/08/05 01:11:57;;;;;;;3.42;1.50;;;14.30;99.90;;;;;;4995455;28;20491;-34
2023/08/05 01:14:23;;;;;;;3.85;1.63;;;14.30;99.90;;;;;;5014368;28;20108;-34
2023/08/05 01:16:48;;;;;;;4.53;1.70;;;14.40;99.90;;;;;;5005271;28;20439;-34
2023/08/05 01:19:21;;;;;;;4.90;1.70;;;14.40;99.90;;;;;;5007319;28;20737;-34
2023/08/05 01:22:20;;;;;;;3.63;1.77;;;14.40;99.90;;;;;;5007363;28;20077;-34
2023/08/05 01:24:58;;;;;;;6.75;1.73;;;14.40;99.90;;;;;;4951773;28;20076;-34
2023/08/05 01:27:24;;;;;;;6.47;2.33;;;14.40;99.90;;;;;;4999469;28;20172;-34
2023/08/05 01:29:50;;;;;;;5.80;1.85;;;14.40;99.90;;;;;;5006952;28;20095;-35
2023/08/05 01:32:17;;;;;;;3.17;1.58;;;14.50;99.90;;;;;;5010149;28;20050;-35
2023/08/05 01:34:44;;;;;;;3.70;1.80;;;14.50;99.90;;;;;;5006517;28;20042;-35
2023/08/05 01:37:09;;;;;;;4.45;2.00;;;14.60;99.90;;;;;;5004899;28;20116;-35
2023/08/05 01:39:35;;;;;;;3.83;1.70;;;14.60;99.90;;;;;;5007803;28;20049;-35
2023/08/05 01:42:01;;;;;;;3.55;1.90;;;14.60;99.90;;;;;;5008862;28;20126;-34
2023/08/05 01:44:26;;;;;;;6.72;2.35;;;14.70;99.90;;;;;;5003324;28;20495;-34
2023/08/05 01:46:52;;;;;;;4.97;2.00;;;14.70;99.90;;;;;;5007032;28;20054;-35
2023/08/05 01:49:18;;;;;;;4.22;2.03;;;14.70;99.90;;;;;;5003363;28;20072;-34
2023/08/05 01:51:43;;;;;;;4.25;1.83;;;14.70;99.90;;;;;;5007901;28;20122;-35
2023/08/05 01:54:09;;;;;;;4.97;1.92;;;14.70;99.90;;;;;;5009561;28;20049;-34
2023/08/05 01:56:34;;;;;;;4.43;1.75;;;14.70;99.90;;;;;;5006941;28;20120;-35
2023/08/05 01:59:00;;;;;;;5.15;1.92;;;14.70;99.90;;;;;;5009692;28;20407;-35
2023/08/05 02:01:42;;;;;;;5.50;1.90;;;14.60;99.90;;;;;;5006854;28;20487;-34
2023/08/05 02:04:08;;;;;;;6.30;2.30;;;14.60;99.90;;;;;;5010320;28;20564;-35
2023/08/05 02:06:34;;;;;;;4.25;1.75;;;14.60;99.90;;;;;;5009018;28;20045;-34
2023/08/05 02:08:59;;;;;;;3.85;1.98;;;14.60;99.90;;;;;;5006476;28;20061;-34
2023/08/05 02:11:25;;;;;;;4.20;2.10;;;14.60;99.90;;;;;;5005769;28;20443;-34
2023/08/05 02:13:50;;;;;;;5.03;1.63;;;14.60;99.90;;;;;;5002470;28;20499;-34
2023/08/05 02:16:16;;;;;;;5.03;2.25;;;14.50;99.90;;;;;;5004825;28;20061;-34
2023/08/05 02:18:42;;;;;;;5.13;2.40;;;14.50;99.90;;;;;;5002222;28;20075;-34
2023/08/05 02:21:07;;;;;;;5.65;1.75;;;14.60;99.90;;;;;;5004195;28;20380;-34
2023/08/05 02:23:33;;;;;;;4.68;2.03;;;14.50;99.90;;;;;;5006064;28;20049;-34
2023/08/05 02:26:01;;;;;;;4.93;1.92;;;14.50;99.90;;;;;;5005268;28;20158;-34
2023/08/05 02:28:26;;;;;;;6.75;1.88;;;14.50;99.90;;;;;;5002524;28;20049;-34
2023/08/05 02:30:52;;;;;;;4.07;2.13;;;14.50;99.90;;;;;;5002695;28;20052;-35
2023/08/05 02:33:17;;;;;;;4.57;1.77;;;14.60;99.90;;;;;;5002743;28;20116;-34
2023/08/05 02:35:43;;;;;;;4.15;2.03;;;14.60;99.90;;;;;;5002441;28;20503;-34
2023/08/05 02:38:09;;;;;;;4.07;2.08;;;14.60;99.90;;;;;;5002697;28;20056;-34
2023/08/05 02:40:34;;;;;;;5.30;1.77;;;14.70;99.90;;;;;;5000295;28;20139;-35
2023/08/05 02:43:00;;;;;;;3.33;2.03;;;14.60;99.90;;;;;;5008444;28;20107;-34
2023/08/05 02:45:26;;;;;;;4.40;1.92;;;14.60;99.90;;;;;;5010594;28;20050;-35
2023/08/05 02:47:51;;;;;;;3.75;2.05;;;14.70;99.90;;;;;;4992196;28;20111;-34
2023/08/05 02:50:17;;;;;;;9.05;2.45;;;14.60;99.90;;;;;;5007135;28;20045;-35
2023/08/05 02:52:42;;;;;;;3.50;1.77;;;14.70;99.90;;;;;;5004211;28;20134;-35
2023/08/05 02:55:08;;;;;;;3.38;1.90;;;14.60;99.90;;;;;;5002277;28;20053;-35
2023/08/05 02:57:34;;;;;;;4.78;2.28;;;14.70;99.90;;;;;;5003820;28;20499;-35
2023/08/05 02:59:59;;;;;;;4.07;2.13;;;14.60;99.90;;;;;;5002677;28;20104;-35
2023/08/05 03:02:26;;;;;;;5.07;1.92;;;14.70;99.90;;;;;;5007370;28;20527;-35
2023/08/05 03:04:51;;;;;;;6.55;2.10;;;14.70;99.90;;;;;;4988822;28;20068;-34
2023/08/05 03:07:17;;;;;;;4.10;2.10;;;14.80;99.90;;;;;;5008471;28;20046;-35
2023/08/05 03:09:43;;;;;;;6.20;2.60;;;14.80;99.90;;;;;;5001427;28;20577;-35
2023/08/05 03:12:08;;;;;;;5.35;1.90;;;14.80;99.90;;;;;;5002900;28;20057;-35
2023/08/05 03:14:34;;;;;;;3.97;1.70;;;14.80;99.90;;;;;;5007186;28;20103;-34
2023/08/05 03:17:00;;;;;;;3.80;1.90;;;14.80;99.90;;;;;;5007299;28;20065;-34
2023/08/05 03:19:26;;;;;;;2.78;1.35;;;14.80;99.90;;;;;;5005237;28;20053;-35
2023/08/05 03:21:51;;;;;;;3.10;1.67;;;14.80;99.90;;;;;;5006280;28;20151;-35
2023/08/05 03:24:17;;;;;;;4.95;1.67;;;14.80;99.90;;;;;;5001425;28;20099;-35
2023/08/05 03:26:43;;;;;;;6.18;1.88;;;14.80;99.90;;;;;;4999599;28;20296;-34
2023/08/05 03:29:09;;;;;;;4.13;1.60;;;14.90;99.90;;;;;;5004713;28;20407;-34
2023/08/05 03:31:34;;;;;;;4.65;1.90;;;14.90;99.90;;;;;;4999375;28;20488;-35
2023/08/05 03:34:00;;;;;;;2.72;1.65;;;14.80;99.90;;;;;;5003391;28;20058;-34
2023/08/05 03:36:25;;;;;;;4.15;1.80;;;14.90;99.90;;;;;;5008203;28;20396;-35
2023/08/05 03:38:51;;;;;;;4.68;1.92;;;14.90;99.90;;;;;;5004679;28;20045;-35
2023/08/05 03:41:17;;;;;;;5.97;1.90;;;14.90;99.90;;;;;;5004714;28;20073;-35
2023/08/05 03:43:43;;;;;;;6.85;2.38;;;14.90;99.90;;;;;;4988017;28;20045;-34
2023/08/05 03:46:08;;;;;;;3.72;2.00;;;14.90;99.90;;;;;;5003379;28;20062;-35
2023/08/05 03:48:34;;;;;;;8.70;2.13;;;14.90;99.90;;;;;;5002401;28;20073;-34
2023/08/05 03:51:00;;;;;;;4.47;1.70;;;14.90;99.90;;;;;;5002224;28;20060;-34
2023/08/05 03:53:26;;;;;;;4.43;2.10;;;15.00;99.90;;;;;;5003556;28;20079;-35
2023/08/05 03:55:52;;;;;;;4.03;2.22;;;15.00;99.90;;;;;;4988314;28;20107;-35
2023/08/05 03:58:19;;;;;;;7.57;1.98;;;15.00;99.90;;;;;;5005270;28;20057;-34
2023/08/05 04:00:45;;;;;;;6.18;2.80;;;15.00;99.90;;;;;;5002009;28;20047;-35
2023/08/05 04:03:11;;;;;;;5.05;1.85;;;14.90;99.90;;;;;;5007644;28;20434;-34
2023/08/05 04:05:37;;;;;;;5.20;2.00;;;14.90;99.90;;;;;;5003755;28;20053;-34
2023/08/05 04:08:03;;;;;;;5.15;1.98;;;14.90;99.90;;;;;;5006120;28;20050;-35
2023/08/05 04:10:30;;;;;;;3.78;1.80;;;15.00;99.90;;;;;;5008176;28;20061;-35
2023/08/05 04:12:57;;;;;;;4.10;1.95;;;15.00;99.90;;;;;;5009291;28;20050;-35
2023/08/05 04:15:25;;;;;;;3.85;1.77;;;15.00;99.90;;;;;;5015584;28;20138;-35
2023/08/05 04:17:53;;;;;;;5.82;2.00;;;15.00;99.90;;;;;;5001843;28;20107;-35
2023/08/05 04:20:20;;;;;;;4.03;1.80;;;15.10;99.90;;;;;;5006787;28;20064;-34
2023/08/05 04:22:49;;;;;;;5.25;1.60;;;15.10;99.90;;;;;;5005215;28;20534;-35
2023/08/05 04:25:14;;;;;;;6.05;1.80;;;15.10;99.90;;;;;;5003532;28;20062;-35
2023/08/05 04:27:40;;;;;;;4.00;2.08;;;15.10;99.90;;;;;;4990277;28;20145;-34
2023/08/05 04:30:07;;;;;;;4.78;1.85;;;15.10;99.90;;;;;;4985126;28;20116;-34
2023/08/05 04:32:33;;;;;;;3.75;1.60;;;15.20;99.90;;;;;;5003779;28;20069;-34
2023/08/05 04:34:59;;;;;;;3.70;1.75;;;15.20;99.90;;;;;;5006998;28;20471;-35
2023/08/05 04:37:25;;;;;;;6.78;2.15;;;15.20;99.90;;;;;;5008658;28;20058;-35
2023/08/05 04:39:50;;;;;;;4.25;2.10;;;15.30;99.90;;;;;;5005800;28;21551;-35
2023/08/05 04:42:17;;;;;;;4.18;1.67;;;15.30;99.90;;;;;;5006750;28;20113;-35
2023/08/05 04:44:43;;;;;;;7.40;1.90;;;15.30;99.90;;;;;;5008979;28;20042;-35
2023/08/05 04:47:10;;;;;;;6.55;2.20;;;15.40;99.90;;;;;;5006974;28;20056;-35
2023/08/05 04:49:38;;;;;;;6.35;2.17;;;15.40;99.90;;;;;;5012176;28;20107;-36
2023/08/05 04:52:08;;;;;;;5.63;2.22;;;15.40;99.90;;;;;;5010967;28;20454;-35
2023/08/05 04:54:43;;;;;;;4.82;2.15;;;15.40;99.90;;;;;;5002596;28;20062;-35
2023/08/05 04:57:09;;;;;;;5.45;2.30;;;15.50;99.90;;;;;;4980729;28;20449;-35
2023/08/05 04:59:35;;;;;;;5.65;2.50;;;15.50;99.90;;;;;;5010041;28;20054;-35
2023/08/05 05:02:01;;;;;;;4.72;2.05;;;15.50;99.90;;;;;;5010868;28;20084;-35
2023/08/05 05:04:30;;;;;;;4.68;2.10;;;15.50;99.90;;;;;;5007920;28;20054;-35
2023/08/05 05:06:56;;;;;;;5.80;2.38;;;15.50;99.90;;;;;;5009615;28;20069;-35
2023/08/05 05:09:22;;;;;;;6.00;2.22;;;15.50;99.90;;;;;;5007283;28;20484;-34
2023/08/05 05:11:47;;;;;;;7.57;2.00;;;15.50;99.90;;;;;;5008012;28;20073;-35
2023/08/05 05:14:13;;;;;;;4.60;2.13;;;15.50;99.90;;;;;;5016616;28;20148;-35
2023/08/05 05:16:39;;;;;;;5.13;1.98;;;15.50;99.90;;;;;;5009102;28;20061;-35
2023/08/05 05:19:05;;;;;;;4.43;2.35;;;15.50;99.90;;;;;;5010770;28;20053;-35
2023/08/05 05:21:30;;;;;;;3.97;1.80;;;15.50;99.90;;;;;;5007596;28;20480;-35
2023/08/05 05:23:56;;;;;;;6.22;2.75;;;15.40;99.90;;;;;;5009309;28;20038;-35
2023/08/05 05:26:22;;;;;;;3.70;1.95;;;15.40;99.90;;;;;;5010891;28;20407;-35
2023/08/05 05:28:47;;;;;;;4.65;1.98;;;15.40;99.90;;;;;;5006729;28;20143;-35
2023/08/05 05:31:13;;;;;;;5.68;2.83;;;15.50;99.90;;;;;;5002792;28;20144;-35
2023/08/05 05:33:39;;;;;;;4.05;2.28;;;15.60;99.90;;;;;;5006042;28;20053;-35
2023/08/05 05:36:04;;;;;;;5.22;2.05;;;15.60;99.90;;;;;;5007769;28;20061;-35
2023/08/05 05:38:30;;;;;;;5.70;2.63;;;15.70;99.90;;;;;;5007365;28;20754;-35
2023/08/05 05:40:56;;;;;;;2.90;1.60;;;15.70;99.90;;;;;;5006458;28;20519;-35
2023/08/05 05:43:21;;;;;;;4.40;1.98;;;15.80;99.90;;;;;;4993712;28;20057;-35
2023/08/05 05:45:51;;;;;;;4.65;2.00;;;15.90;99.90;;;;;;4993442;28;20222;-35
2023/08/05 05:48:17;;;;;;;7.82;2.42;;;16.00;99.90;;;;;;5008278;28;20070;-35
2023/08/05 05:50:43;;;;;;;4.95;2.08;;;16.00;99.90;;;;;;5006604;28;20046;-35
2023/08/05 05:53:13;;;;;;;6.72;2.33;;;16.10;99.90;;;;;;4984471;28;20054;-35
2023/08/05 05:55:41;;;;;;;5.68;1.95;;;16.10;99.90;;;;;;5008917;28;20037;-35
2023/08/05 05:58:07;;;;;;;4.40;1.98;;;16.10;99.90;;;;;;5010620;28;20125;-35
2023/08/05 06:00:32;;;;;;;10.93;2.42;;;16.10;99.90;;;;;;5001644;28;20524;-35
2023/08/05 06:02:58;;;;;;;6.07;2.30;;;16.10;99.90;;;;;;4989727;28;20056;-35
2023/08/05 06:05:24;;;;;;;4.90;2.10;;;16.10;99.90;;;;;;5005791;28;20120;-35
2023/08/05 06:07:50;;;;;;;4.20;2.05;;;16.10;99.90;;;;;;5006579;28;20498;-35
2023/08/05 06:10:16;;;;;;;7.18;2.30;;;16.10;99.90;;;;;;4988443;28;20058;-35
2023/08/05 06:12:41;;;;;;;5.07;2.10;;;16.10;99.90;;;;;;5007900;28;20058;-35
2023/08/05 06:15:07;;;;;;;4.15;2.47;;;16.00;99.90;;;;;;5008915;28;20057;-35
2023/08/05 06:17:33;;;;;;;4.97;2.15;;;16.00;99.90;;;;;;5001864;28;20042;-35
2023/08/05 06:19:59;;;;;;;3.72;2.30;;;15.90;99.90;;;;;;5005835;28;20689;-35
2023/08/05 06:22:25;;;;;;;3.78;2.05;;;15.90;99.90;;;;;;5003372;28;20392;-35
2023/08/05 06:24:51;;;;;;;5.63;2.10;;;15.90;99.90;;;;;;5002126;28;20084;-35
2023/08/05 06:27:17;;;;;;;4.60;2.22;;;16.00;99.90;;;;;;5002762;28;20069;-33
2023/08/05 06:29:43;;;;;;;4.93;3.03;;;16.00;99.90;;;;;;5000653;28;20061;-33
2023/08/05 06:32:08;;;;;;;4.53;2.50;;;16.00;99.90;;;;;;5002295;28;20435;-34
2023/08/05 06:34:34;;;;;;;4.80;2.20;;;16.10;99.90;;;;;;4999087;28;20054;-34
2023/08/05 06:37:00;;;;;;;5.45;2.53;;;16.10;99.90;;;;;;5001844;28;20058;-34
2023/08/05 06:39:25;;;;;;;5.07;2.38;;;16.20;99.90;;;;;;5003142;28;20111;-34
2023/08/05 06:41:51;;;;;;;5.22;2.08;;;16.30;99.90;;;;;;5006815;28;20060;-34
2023/08/05 06:44:17;;;;;;;5.22;2.50;;;16.30;99.90;;;;;;4988104;28;20049;-34
2023/08/05 06:46:42;;;;;;;6.35;2.53;;;16.50;99.90;;;;;;5002056;28;20527;-34
2023/08/05 06:49:09;;;;;;;3.25;1.83;;;16.50;99.90;;;;;;4999938;28;20093;-34
2023/08/05 06:51:35;;;;;;;7.18;2.20;;;16.50;99.90;;;;;;5005038;28;20057;-34
2023/08/05 06:54:01;;;;;;;7.07;2.00;;;16.60;99.90;;;;;;5005036;28;20046;-34
2023/08/05 06:56:27;;;;;;;3.95;2.38;;;16.60;99.90;;;;;;4992662;28;20045;-34
2023/08/05 06:58:53;;;;;;;5.93;2.28;;;16.60;99.90;;;;;;5008798;28;20422;-34
2023/08/05 07:01:18;;;;;;;2.65;1.42;;;16.70;99.90;;;;;;5002039;28;20053;-34
2023/08/05 07:03:44;;;;;;;5.55;1.85;;;16.80;99.90;;;;;;5000714;28;20081;-34
2023/08/05 07:06:10;;;;;;;3.50;1.90;;;16.80;99.90;;;;;;4995960;28;20052;-34
2023/08/05 07:08:36;;;;;;;2.80;1.55;;;16.90;99.90;;;;;;5003080;28;20050;-34
2023/08/05 07:11:03;;;;;;;3.47;1.65;;;16.90;99.90;;;;;;5006006;28;20108;-34
2023/08/05 07:13:28;;;;;;;3.00;1.45;;;17.00;99.90;;;;;;5007325;28;20054;-34
2023/08/05 07:16:01;;;;;;;3.90;1.42;;;17.00;99.90;;;;;;5006705;28;20053;-34
2023/08/05 07:18:27;;;;;;;4.25;1.50;;;17.10;99.90;;;;;;5003296;28;20407;-34
2023/08/05 07:20:53;;;;;;;3.60;1.30;;;17.10;99.90;;;;;;5001306;28;20049;-34
2023/08/05 07:23:19;;;;;;;4.25;1.40;;;17.20;99.90;;;;;;5008420;28;20060;-34
2023/08/05 07:25:45;;;;;;;4.28;1.40;;;17.20;99.90;;;;;;5011242;28;20517;-34
2023/08/05 07:28:11;;;;;;;3.53;1.35;;;17.20;99.90;;;;;;5001250;28;20046;-34
2023/08/05 07:30:36;;;;;;;5.28;1.65;;;17.20;99.90;;;;;;5005911;28;20754;-34
2023/08/05 07:33:04;;;;;;;2.95;1.40;;;17.30;99.90;;;;;;5009397;28;20376;-34
2023/08/05 07:35:32;;;;;;;3.35;1.65;;;17.30;99.90;;;;;;5004818;28;20061;-34
2023/08/05 07:37:58;;;;;;;4.13;1.45;;;17.30;99.90;;;;;;5002720;28;20050;-34
2023/08/05 07:40:24;;;;;;;7.97;1.80;;;17.40;99.90;;;;;;5000606;28;20466;-34
2023/08/05 07:42:49;;;;;;;2.72;1.45;;;17.50;99.90;;;;;;5002987;28;20135;-34
2023/08/05 07:45:21;;;;;;;2.47;1.05;;;17.60;99.90;;;;;;5001970;28;20068;-34
2023/08/05 07:47:47;;;;;;;3.53;1.42;;;17.60;99.90;;;;;;5004547;28;20065;-34
2023/08/05 07:50:21;;;;;;;4.25;1.60;;;17.70;99.90;;;;;;4998601;28;20046;-34
2023/08/05 07:52:48;;;;;;;7.28;1.77;;;17.70;99.90;;;;;;4976890;28;20515;-34
2023/08/05 07:55:13;;;;;;;2.70;1.45;;;17.80;99.90;;;;;;4966983;28;20042;-34
2023/08/05 07:57:40;;;;;;;3.70;1.40;;;17.90;99.90;;;;;;4964874;28;20054;-35
2023/08/05 08:00:09;;;;;;;5.40;1.90;;;17.90;99.90;;;;;;4965800;28;20062;-35
2023/08/05 08:02:35;;;;;;;4.15;1.63;;;17.90;99.90;;;;;;4964939;28;20087;-35
2023/08/05 08:05:04;;;;;;;3.95;1.30;;;18.00;99.90;;;;;;4954849;28;20146;-34
2023/08/05 08:07:30;;;;;;;3.33;1.20;;;18.10;99.90;;;;;;4955763;28;20500;-34
2023/08/05 08:09:56;;;;;;;2.65;1.10;;;18.10;99.90;;;;;;4961793;28;20053;-35
2023/08/05 08:12:22;;;;;;;3.65;1.10;;;18.20;99.90;;;;;;4957256;28;20049;-34
2023/08/05 08:14:48;;;;;;;4.95;2.05;;;18.20;99.90;;;;;;4963035;28;20598;-35
2023/08/05 08:17:13;;;;;;;3.78;1.10;;;18.20;99.90;;;;;;4961554;28;20043;-35
2023/08/05 08:19:39;;;;;;;5.00;1.30;;;18.20;99.90;;;;;;4964157;28;20062;-35
2023/08/05 08:22:05;;;;;;;3.90;1.27;;;18.20;99.90;;;;;;4954031;28;20070;-34
2023/08/05 08:24:31;;;;;;;3.28;1.25;;;18.20;99.90;;;;;;4952336;28;20046;-34
2023/08/05 08:26:56;;;;;;;5.55;1.27;;;18.20;99.90;;;;;;4954255;28;20432;-34
2023/08/05 08:29:22;;;;;;;4.13;1.25;;;18.30;99.90;;;;;;4955919;28;20138;-34
2023/08/05 08:31:48;;;;;;;3.47;1.42;;;18.40;99.90;;;;;;4956035;28;20050;-34
2023/08/05 08:34:14;;;;;;;4.72;1.05;;;18.40;99.90;;;;;;4953075;28;20058;-35
2023/08/05 08:36:39;;;;;;;3.10;1.23;;;18.60;99.90;;;;;;4956611;28;20531;-33
2023/08/05 08:39:05;;;;;;;4.43;0.98;;;18.70;99.90;;;;;;4956652;28;20240;-34
2023/08/05 08:41:39;;;;;;;2.70;1.17;;;18.70;99.90;;;;;;4958486;28;20134;-34
2023/08/05 08:44:05;;;;;;;5.20;1.40;;;18.80;99.90;;;;;;4960136;28;20508;-33
2023/08/05 08:46:31;;;;;;;5.28;1.20;;;18.80;99.90;;;;;;4962389;28;20089;-33
2023/08/05 08:48:56;;;;;;;2.90;1.02;;;18.80;99.90;;;;;;4963867;28;21057;-34
2023/08/05 08:51:23;;;;;;;5.18;1.48;;;18.80;99.90;;;;;;4967497;28;20089;-34
2023/08/05 08:53:50;;;;;;;4.97;1.70;;;18.90;99.90;;;;;;5002905;28;20417;-34
2023/08/05 08:56:16;;;;;;;3.53;1.50;;;19.00;99.90;;;;;;5006419;28;20042;-33
2023/08/05 08:58:41;;;;;;;5.63;1.48;;;19.10;99.90;;;;;;5007487;28;20164;-34
2023/08/05 09:01:07;;;;;;;4.03;1.55;;;19.20;99.90;;;;;;5002252;28;20046;-34
2023/08/05 09:03:34;;;;;;;4.90;1.65;;;19.20;99.90;;;;;;5006872;28;20057;-35
2023/08/05 09:06:00;;;;;;;8.18;2.00;;;19.30;99.90;;;;;;5005426;28;20066;-34
2023/08/05 09:08:27;;;;;;;3.00;1.40;;;19.30;99.90;;;;;;5002994;28;20080;-34
2023/08/05 09:10:53;;;;;;;5.35;1.92;;;19.40;99.90;;;;;;5009057;28;20052;-34
2023/08/05 09:13:21;;;;;;;3.83;1.55;;;19.50;99.90;;;;;;5009492;28;20136;-34
2023/08/05 09:15:49;;;;;;;4.10;1.65;;;19.60;99.90;;;;;;5006203;28;20518;-35
2023/08/05 09:18:15;;;;;;;2.75;1.20;;;19.60;99.90;;;;;;5007269;28;20140;-34
2023/08/05 09:20:41;;;;;;;2.97;1.33;;;19.70;99.90;;;;;;5006142;28;20471;-34
2023/08/05 09:23:09;;;;;;;5.03;1.67;;;19.70;99.90;;;;;;5005406;28;20057;-34
2023/08/05 09:25:45;;;;;;;4.25;1.42;;;19.80;99.90;;;;;;5003866;28;20083;-33
2023/08/05 09:28:27;;;;;;;4.00;1.85;;;20.00;99.90;;;;;;5002969;28;20138;-35
2023/08/05 09:30:53;;;;;;;5.45;1.58;;;20.20;99.90;;;;;;5003711;28;20091;-35
2023/08/05 09:33:19;;;;;;;5.20;1.60;;;20.30;99.90;;;;;;5000872;28;20057;-35
2023/08/05 09:35:47;;;;;;;4.13;2.35;;;20.30;99.90;;;;;;5000786;28;20080;-35
2023/08/05 09:38:13;;;;;;;4.40;1.50;;;20.20;99.90;;;;;;5005254;28;20187;-35
2023/08/05 09:40:41;;;;;;;3.38;1.60;;;20.20;99.90;;;;;;5003166;28;20474;-34
2023/08/05 09:43:08;;;;;;;5.57;1.70;;;20.10;99.90;;;;;;5000516;28;20511;-34
2023/08/05 09:45:33;;;;;;;3.05;1.65;;;20.20;99.90;;;;;;5004678;28;20088;-34
2023/08/05 09:48:10;;;;;;;5.13;1.80;;;20.50;99.90;;;;;;5002019;28;20058;-34
2023/08/05 09:50:37;;;;;;;4.10;2.03;;;20.70;99.90;;;;;;4996277;28;20052;-35
2023/08/05 09:53:07;;;;;;;5.18;1.98;;;20.70;99.90;;;;;;5000333;28;20421;-35
2023/08/05 09:55:35;;;;;;;3.50;1.85;;;20.70;99.90;;;;;;5003029;28;20099;-35
2023/08/05 09:58:07;;;;;;;4.30;2.38;;;20.70;99.90;;;;;;5004524;28;20192;-35
2023/08/05 10:00:33;;;;;;;4.75;2.20;;;20.70;99.90;;;;;;5006459;28;20057;-34
2023/08/05 10:03:00;;;;;;;5.38;2.28;;;20.60;99.90;;;;;;5009498;28;20159;-34
2023/08/05 10:05:26;;;;;;;6.03;2.05;;;20.70;99.90;;;;;;5004039;28;20057;-34
2023/08/05 10:07:54;;;;;;;4.07;1.98;;;20.60;99.90;;;;;;5002626;28;20065;-34
2023/08/05 10:10:20;;;;;;;5.22;2.28;;;20.80;99.90;;;;;;5010786;28;20049;-34
2023/08/05 10:12:49;;;;;;;6.10;2.88;;;21.00;99.90;;;;;;5001123;28;20129;-34
2023/08/05 10:15:29;;;;;;;4.55;2.00;;;21.00;99.90;;;;;;5007070;28;20049;-34
2023/08/05 10:17:54;;;;;;;3.33;2.00;;;21.10;99.90;;;;;;5004129;28;20097;-35
2023/08/05 10:20:21;;;;;;;4.93;2.03;;;21.00;99.90;;;;;;4998287;28;20458;-34
2023/08/05 10:23:06;;;;;;;3.83;1.90;;;21.00;99.90;;;;;;4997704;28;20396;-34
2023/08/05 10:25:45;;;;;;;3.60;1.80;;;21.10;99.90;;;;;;5007522;28;20049;-35
2023/08/05 10:28:33;;;;;;;2.75;1.70;;;21.10;99.90;;;;;;5003094;28;20037;-35
2023/08/05 10:31:03;;;;;;;7.25;2.50;;;21.30;99.90;;;;;;4997456;28;20500;-35
2023/08/05 10:33:28;;;;;;;3.75;2.00;;;21.40;99.90;;;;;;5003848;28;20088;-35
2023/08/05 10:36:07;;;;;;;4.43;2.28;;;21.60;99.90;;;;;;4984411;28;20057;-34
2023/08/05 10:38:42;;;;;;;3.42;1.63;;;21.70;99.90;;;;;;5001099;28;20056;-35
2023/08/05 10:41:10;;;;;;;5.45;2.50;;;21.80;99.90;;;;;;5001622;28;20515;-35
2023/08/05 10:43:40;;;;;;;3.45;2.03;;;21.90;99.90;;;;;;5002421;28;20057;-35
2023/08/05 10:46:06;;;;;;;6.15;2.60;;;21.90;99.90;;;;;;5007749;28;20499;-35
2023/08/05 10:48:43;;;;;;;4.18;2.00;;;21.90;99.90;;;;;;5004506;28;20074;-35
2023/08/05 10:51:23;;;;;;;4.32;1.95;;;22.10;99.90;;;;;;5003838;28;20092;-35
2023/08/05 10:53:54;;;;;;;4.65;2.15;;;22.30;99.90;;;;;;5001028;28;20054;-34
2023/08/05 10:56:32;;;;;;;5.95;2.40;;;22.50;99.90;;;;;;5002072;28;20076;-35
2023/08/05 10:59:01;;;;;;;5.10;2.25;;;22.60;99.90;;;;;;5003375;28;20084;-35
2023/08/05 11:01:56;;;;;;;5.47;1.90;;;22.40;99.90;;;;;;5001515;28;20050;-34
2023/08/05 11:04:31;;;;;;;5.38;2.50;;;22.30;99.90;;;;;;5001183;28;20050;-35
2023/08/05 11:07:00;;;;;;;3.65;1.88;;;22.20;99.90;;;;;;5002830;28;20041;-35
2023/08/05 11:09:35;;;;;;;4.78;1.70;;;22.20;99.90;;;;;;5001496;28;20390;-35
2023/08/05 11:12:01;;;;;;;6.40;1.73;;;22.10;99.90;;;;;;4999228;28;20045;-35
2023/08/05 11:14:28;;;;;;;2.88;1.83;;;22.10;99.90;;;;;;4997147;28;20057;-35
2023/08/05 11:17:02;;;;;;;2.80;1.70;;;22.10;99.90;;;;;;5004313;28;20061;-35
2023/08/05 11:19:28;;;;;;;3.20;1.50;;;22.10;99.90;;;;;;5002411;28;20575;-34
2023/08/05 11:21:53;;;;;;;1.70;1.00;;;22.20;99.90;;;;;;5000131;28;20049;-34
2023/08/05 11:24:20;;;;;;;2.42;1.10;;;22.30;99.90;;;;;;5002660;28;20046;-35
2023/08/05 11:26:49;;;;;;;3.42;1.20;;;22.30;99.90;;;;;;5006998;28;20056;-34
2023/08/05 11:29:15;;;;;;;1.58;0.85;;;22.30;99.90;;;;;;5000674;28;20042;-35
2023/08/05 11:31:52;;;;;;;2.00;1.15;;;22.40;99.90;;;;;;5001083;28;20124;-35
2023/08/05 11:34:22;;;;;;;2.13;1.27;;;22.50;99.90;;;;;;4998054;28;20049;-35
2023/08/05 11:36:57;;;;;;;2.97;1.23;;;22.60;99.90;;;;;;4999915;28;20054;-34
2023/08/05 11:39:24;;;;;;;1.83;1.00;;;22.70;99.90;;;;;;5008938;28;20058;-35
2023/08/05 11:41:50;;;;;;;4.05;1.17;;;22.70;99.90;;;;;;5003781;28;20046;-35
2023/08/05 11:44:19;;;;;;;8.40;1.25;;;22.60;99.90;;;;;;5003058;28;20050;-34
2023/08/05 11:46:45;;;;;;;2.28;1.15;;;22.60;99.90;;;;;;5008969;28;20046;-35
2023/08/05 11:49:13;;;;;;;1.80;1.08;;;22.60;99.90;;;;;;5002656;28;20053;-35
2023/08/05 11:51:44;;;;;;;1.85;1.10;;;22.50;99.90;;;;;;5003534;28;20129;-34
2023/08/05 11:54:10;;;;;;;1.50;1.00;;;22.40;99.90;;;;;;5005128;28;20049;-35
2023/08/05 11:56:36;;;;;;;3.17;1.27;;;22.50;99.90;;;;;;5003428;28;20049;-35
2023/08/05 11:59:01;;;;;;;1.67;1.10;;;22.50;99.90;;;;;;5004320;28;20053;-34
2023/08/05 12:01:27;;;;;;;2.88;1.20;;;22.50;99.90;;;;;;4995903;28;20053;-35
2023/08/05 12:03:57;;;;;;;3.03;1.20;;;22.50;99.90;;;;;;5006176;28;20488;-35
2023/08/05 12:06:26;;;;;;;1.60;1.00;;;22.50;99.90;;;;;;5006653;28;20050;-35
2023/08/05 12:08:59;;;;;;;1.63;1.00;;;22.60;99.90;;;;;;5011350;28;20475;-35
2023/08/05 12:11:25;;;;;;;1.50;0.90;;;22.60;99.90;;;;;;5008150;28;20049;-34
2023/08/05 12:13:51;;;;;;;2.33;0.90;;;22.70;99.90;;;;;;5003736;28;20079;-35
2023/08/05 12:16:17;;;;;;;1.60;1.00;;;22.70;99.90;;;;;;5001085;28;20470;-35
2023/08/05 12:18:43;;;;;;;1.42;1.00;;;22.60;99.90;;;;;;5000791;28;20073;-35
2023/08/05 12:21:09;;;;;;;1.40;0.70;;;22.50;99.90;;;;;;4995027;28;20065;-34
2023/08/05 12:23:40;;;;;;;2.00;0.93;;;22.50;99.90;;;;;;5000585;28;20054;-34
2023/08/05 12:26:07;;;;;;;1.08;0.75;;;22.40;99.90;;;;;;4998955;28;20108;-35
2023/08/05 12:28:32;;;;;;;1.52;0.93;;;22.30;99.90;;;;;;5006807;28;20643;-34
2023/08/05 12:30:58;;;;;;;1.60;0.80;;;22.10;99.90;;;;;;5004153;28;20486;-35
2023/08/05 12:33:23;;;;;;;2.35;0.80;;;22.10;99.90;;;;;;4996533;28;20062;-35
2023/08/05 12:35:49;;;;;;;3.13;0.80;;;22.00;99.90;;;;;;4999753;28;20138;-35
2023/08/05 12:38:18;;;;;;;2.15;0.90;;;22.00;99.90;;;;;;5001355;28;20593;-34
2023/08/05 12:40:44;;;;;;;2.63;1.02;;;22.00;99.90;;;;;;5005739;28;20079;-35
2023/08/05 12:43:12;;;;;;;2.17;0.85;;;21.90;99.90;;;;;;5006157;28;20045;-35
2023/08/05 12:45:41;;;;;;;1.60;1.05;;;21.80;99.90;;;;;;5008460;28;20054;-35
2023/08/05 12:48:06;;;;;;;2.55;1.15;;;21.80;99.90;;;;;;5006533;28;20053;-34